sensor_id;sensor_type;location;lat;lon;timestamp;P1;durP1;ratioP1;P2;durP2;ratioP2
27740;SDS011;15134;48.768;9.184;2023-07-31T00:00:42;975.65;;;876.90;;
27740;SDS011;15134;48.768;9.184;2023-07-31T00:03:08;969.50;;;871.13;;
27740;SDS011;15134;48.768;9.184;2023-07-31T00:05:35;974.33;;;875.80;;
27740;SDS011;15134;48.768;9.184;2023-07-31T00:08:01;969.43;;;870.90;;
27740;SDS011;15134;48.768;9.184;2023-07-31T00:10:27;975.72;;;876.72;;
27740;SDS011;15134;48.768;9.184;2023-07-31T00:12:53;969.83;;;871.10;;
27740;SDS011;15134;48.768;9.184;2023-07-31T00:15:19;969.25;;;870.15;;
27740;SDS011;15134;48.768;9.184;2023-07-31T00:17:44;972.72;;;874.00;;
27740;SDS011;15134;48.768;9.184;2023-07-31T00:20:10;967.17;;;868.70;;
27740;SDS011;15134;48.768;9.184;2023-07-31T00:22:36;969.22;;;870.70;;
27740;SDS011;15134;48.768;9.184;2023-07-31T00:25:02;972.00;;;873.25;;
27740;SDS011;15134;48.768;9.184;2023-07-31T00:27:28;967.07;;;868.57;;
27740;SDS011;15134;48.768;9.184;2023-07-31T00:29:53;970.97;;;872.23;;
27740;SDS011;15134;48.768;9.184;2023-07-31T00:32:19;962.92;;;864.65;;
27740;SDS011;15134;48.768;9.184;2023-07-31T00:34:56;963.85;;;865.22;;
27740;SDS011;15134;48.768;9.184;2023-07-31T00:37:23;971.15;;;872.40;;
27740;SDS011;15134;48.768;9.184;2023-07-31T00:39:49;960.65;;;862.30;;
27740;SDS011;15134;48.768;9.184;2023-07-31T00:42:15;968.95;;;870.28;;
27740;SDS011;15134;48.768;9.184;2023-07-31T00:44:46;966.08;;;867.35;;
27740;SDS011;15134;48.768;9.184;2023-07-31T00:47:14;963.35;;;864.95;;
27740;SDS011;15134;48.768;9.184;2023-07-31T00:49:40;960.47;;;862.15;;
27740;SDS011;15134;48.768;9.184;2023-07-31T00:52:06;962.60;;;864.10;;
27740;SDS011;15134;48.768;9.184;2023-07-31T00:54:41;964.78;;;866.40;;
27740;SDS011;15134;48.768;9.184;2023-07-31T00:57:08;953.13;;;855.30;;
27740;SDS011;15134;48.768;9.184;2023-07-31T00:59:36;961.08;;;862.85;;
27740;SDS011;15134;48.768;9.184;2023-07-31T01:02:02;955.88;;;857.88;;
27740;SDS011;15134;48.768;9.184;2023-07-31T01:04:28;957.00;;;858.95;;
27740;SDS011;15134;48.768;9.184;2023-07-31T01:07:02;967.75;;;869.13;;
27740;SDS011;15134;48.768;9.184;2023-07-31T01:09:46;956.05;;;858.08;;
27740;SDS011;15134;48.768;9.184;2023-07-31T01:12:20;961.20;;;862.85;;
27740;SDS011;15134;48.768;9.184;2023-07-31T01:15:01;962.95;;;864.05;;
27740;SDS011;15134;48.768;9.184;2023-07-31T01:17:41;955.08;;;855.72;;
27740;SDS011;15134;48.768;9.184;2023-07-31T01:20:25;958.75;;;858.05;;
27740;SDS011;15134;48.768;9.184;2023-07-31T01:28:50;960.80;;;862.50;;
27740;SDS011;15134;48.768;9.184;2023-07-31T01:31:43;959.70;;;861.30;;
27740;SDS011;15134;48.768;9.184;2023-07-31T01:34:13;966.85;;;868.25;;
27740;SDS011;15134;48.768;9.184;2023-07-31T01:36:45;965.28;;;866.83;;
27740;SDS011;15134;48.768;9.184;2023-07-31T01:39:13;959.83;;;861.67;;
27740;SDS011;15134;48.768;9.184;2023-07-31T01:41:40;960.53;;;862.15;;
27740;SDS011;15134;48.768;9.184;2023-07-31T01:44:06;957.40;;;859.40;;
27740;SDS011;15134;48.768;9.184;2023-07-31T01:46:35;962.00;;;863.70;;
27740;SDS011;15134;48.768;9.184;2023-07-31T01:49:01;952.47;;;854.30;;
27740;SDS011;15134;48.768;9.184;2023-07-31T01:51:27;958.17;;;859.92;;
27740;SDS011;15134;48.768;9.184;2023-07-31T01:53:52;953.77;;;855.70;;
27740;SDS011;15134;48.768;9.184;2023-07-31T01:56:19;957.75;;;859.65;;
27740;SDS011;15134;48.768;9.184;2023-07-31T01:58:44;956.43;;;858.23;;
27740;SDS011;15134;48.768;9.184;2023-07-31T02:01:13;950.77;;;852.90;;
27740;SDS011;15134;48.768;9.184;2023-07-31T02:03:39;955.22;;;857.00;;
27740;SDS011;15134;48.768;9.184;2023-07-31T02:06:04;946.53;;;848.88;;
27740;SDS011;15134;48.768;9.184;2023-07-31T02:08:30;951.03;;;853.10;;
27740;SDS011;15134;48.768;9.184;2023-07-31T02:10:56;951.83;;;853.70;;
27740;SDS011;15134;48.768;9.184;2023-07-31T02:13:22;948.00;;;850.20;;
27740;SDS011;15134;48.768;9.184;2023-07-31T02:15:49;950.97;;;853.25;;
27740;SDS011;15134;48.768;9.184;2023-07-31T02:18:15;954.10;;;855.85;;
27740;SDS011;15134;48.768;9.184;2023-07-31T02:20:41;957.60;;;859.40;;
27740;SDS011;15134;48.768;9.184;2023-07-31T02:23:07;952.35;;;854.38;;
27740;SDS011;15134;48.768;9.184;2023-07-31T02:25:34;951.42;;;853.50;;
27740;SDS011;15134;48.768;9.184;2023-07-31T02:28:08;954.20;;;856.15;;
27740;SDS011;15134;48.768;9.184;2023-07-31T02:30:35;954.83;;;856.97;;
27740;SDS011;15134;48.768;9.184;2023-07-31T02:33:04;959.10;;;860.73;;
27740;SDS011;15134;48.768;9.184;2023-07-31T02:35:30;951.33;;;853.65;;
27740;SDS011;15134;48.768;9.184;2023-07-31T02:37:56;952.90;;;855.10;;
27740;SDS011;15134;48.768;9.184;2023-07-31T02:40:21;951.05;;;853.45;;
27740;SDS011;15134;48.768;9.184;2023-07-31T02:42:50;955.47;;;857.70;;
27740;SDS011;15134;48.768;9.184;2023-07-31T02:45:16;954.20;;;856.20;;
27740;SDS011;15134;48.768;9.184;2023-07-31T02:47:42;949.15;;;851.63;;
27740;SDS011;15134;48.768;9.184;2023-07-31T02:50:08;952.55;;;854.65;;
27740;SDS011;15134;48.768;9.184;2023-07-31T02:52:34;952.75;;;855.08;;
27740;SDS011;15134;48.768;9.184;2023-07-31T02:54:59;951.25;;;853.60;;
27740;SDS011;15134;48.768;9.184;2023-07-31T02:57:25;951.53;;;853.73;;
27740;SDS011;15134;48.768;9.184;2023-07-31T02:59:51;951.43;;;853.73;;
27740;SDS011;15134;48.768;9.184;2023-07-31T03:02:16;948.80;;;851.13;;
27740;SDS011;15134;48.768;9.184;2023-07-31T03:04:45;952.08;;;854.30;;
27740;SDS011;15134;48.768;9.184;2023-07-31T03:07:11;945.78;;;848.22;;
27740;SDS011;15134;48.768;9.184;2023-07-31T03:09:37;949.03;;;851.33;;
27740;SDS011;15134;48.768;9.184;2023-07-31T03:12:03;945.05;;;847.60;;
27740;SDS011;15134;48.768;9.184;2023-07-31T03:14:29;950.17;;;852.57;;
27740;SDS011;15134;48.768;9.184;2023-07-31T03:16:54;945.10;;;847.60;;
27740;SDS011;15134;48.768;9.184;2023-07-31T03:19:20;943.85;;;846.42;;
27740;SDS011;15134;48.768;9.184;2023-07-31T03:21:46;938.30;;;841.10;;
27740;SDS011;15134;48.768;9.184;2023-07-31T03:24:11;943.90;;;846.45;;
27740;SDS011;15134;48.768;9.184;2023-07-31T03:26:38;946.92;;;849.17;;
27740;SDS011;15134;48.768;9.184;2023-07-31T03:29:06;947.17;;;849.55;;
27740;SDS011;15134;48.768;9.184;2023-07-31T03:31:33;944.58;;;847.08;;
27740;SDS011;15134;48.768;9.184;2023-07-31T03:33:59;944.07;;;846.47;;
27740;SDS011;15134;48.768;9.184;2023-07-31T03:36:26;944.83;;;847.40;;
27740;SDS011;15134;48.768;9.184;2023-07-31T03:38:52;942.78;;;845.45;;
27740;SDS011;15134;48.768;9.184;2023-07-31T03:41:18;948.27;;;850.27;;
27740;SDS011;15134;48.768;9.184;2023-07-31T03:43:49;943.33;;;845.73;;
27740;SDS011;15134;48.768;9.184;2023-07-31T03:46:17;950.35;;;852.17;;
27740;SDS011;15134;48.768;9.184;2023-07-31T03:48:44;956.17;;;858.05;;
27740;SDS011;15134;48.768;9.184;2023-07-31T03:51:13;948.47;;;850.67;;
27740;SDS011;15134;48.768;9.184;2023-07-31T03:53:39;945.53;;;847.97;;
27740;SDS011;15134;48.768;9.184;2023-07-31T03:56:04;945.00;;;847.37;;
27740;SDS011;15134;48.768;9.184;2023-07-31T03:58:30;942.28;;;844.90;;
27740;SDS011;15134;48.768;9.184;2023-07-31T04:00:56;944.80;;;847.17;;
27740;SDS011;15134;48.768;9.184;2023-07-31T04:03:22;946.72;;;848.97;;
27740;SDS011;15134;48.768;9.184;2023-07-31T04:05:47;943.77;;;846.37;;
27740;SDS011;15134;48.768;9.184;2023-07-31T04:08:13;945.40;;;847.93;;
27740;SDS011;15134;48.768;9.184;2023-07-31T04:10:39;942.33;;;844.83;;
27740;SDS011;15134;48.768;9.184;2023-07-31T04:13:04;942.22;;;844.83;;
27740;SDS011;15134;48.768;9.184;2023-07-31T04:15:33;941.83;;;844.42;;
27740;SDS011;15134;48.768;9.184;2023-07-31T04:17:59;947.45;;;849.95;;
27740;SDS011;15134;48.768;9.184;2023-07-31T04:20:41;944.13;;;846.63;;
27740;SDS011;15134;48.768;9.184;2023-07-31T04:23:09;949.15;;;851.63;;
27740;SDS011;15134;48.768;9.184;2023-07-31T04:25:35;949.90;;;852.40;;
27740;SDS011;15134;48.768;9.184;2023-07-31T04:28:01;947.17;;;849.67;;
27740;SDS011;15134;48.768;9.184;2023-07-31T04:30:27;954.00;;;856.30;;
27740;SDS011;15134;48.768;9.184;2023-07-31T04:35:50;955.83;;;857.80;;
27740;SDS011;15134;48.768;9.184;2023-07-31T04:38:21;962.63;;;864.40;;
27740;SDS011;15134;48.768;9.184;2023-07-31T04:40:47;956.13;;;858.22;;
27740;SDS011;15134;48.768;9.184;2023-07-31T04:43:13;954.58;;;856.58;;
27740;SDS011;15134;48.768;9.184;2023-07-31T04:45:39;958.92;;;860.78;;
27740;SDS011;15134;48.768;9.184;2023-07-31T04:48:09;956.50;;;858.40;;
27740;SDS011;15134;48.768;9.184;2023-07-31T04:50:34;958.33;;;860.03;;
27740;SDS011;15134;48.768;9.184;2023-07-31T04:53:00;958.00;;;859.70;;
27740;SDS011;15134;48.768;9.184;2023-07-31T04:55:26;961.43;;;863.20;;
27740;SDS011;15134;48.768;9.184;2023-07-31T04:57:51;959.17;;;861.05;;
27740;SDS011;15134;48.768;9.184;2023-07-31T05:00:18;962.20;;;864.10;;
27740;SDS011;15134;48.768;9.184;2023-07-31T05:02:43;962.95;;;864.72;;
27740;SDS011;15134;48.768;9.184;2023-07-31T05:05:10;972.60;;;873.97;;
27740;SDS011;15134;48.768;9.184;2023-07-31T05:07:38;970.90;;;872.22;;
27740;SDS011;15134;48.768;9.184;2023-07-31T05:10:04;965.95;;;867.63;;
27740;SDS011;15134;48.768;9.184;2023-07-31T05:12:31;967.33;;;869.13;;
27740;SDS011;15134;48.768;9.184;2023-07-31T05:14:58;965.08;;;867.00;;
27740;SDS011;15134;48.768;9.184;2023-07-31T05:17:23;976.92;;;878.05;;
27740;SDS011;15134;48.768;9.184;2023-07-31T05:19:49;977.70;;;878.85;;
27740;SDS011;15134;48.768;9.184;2023-07-31T05:22:21;975.53;;;877.00;;
27740;SDS011;15134;48.768;9.184;2023-07-31T05:24:57;969.92;;;871.50;;
27740;SDS011;15134;48.768;9.184;2023-07-31T05:27:24;967.40;;;869.10;;
27740;SDS011;15134;48.768;9.184;2023-07-31T05:29:50;968.28;;;869.97;;
27740;SDS011;15134;48.768;9.184;2023-07-31T05:32:16;968.50;;;870.13;;
27740;SDS011;15134;48.768;9.184;2023-07-31T05:34:41;965.80;;;867.40;;
27740;SDS011;15134;48.768;9.184;2023-07-31T05:37:10;968.72;;;870.28;;
27740;SDS011;15134;48.768;9.184;2023-07-31T05:39:37;974.40;;;875.67;;
27740;SDS011;15134;48.768;9.184;2023-07-31T05:42:03;979.92;;;881.05;;
27740;SDS011;15134;48.768;9.184;2023-07-31T05:44:29;984.58;;;885.28;;
27740;SDS011;15134;48.768;9.184;2023-07-31T05:46:55;996.40;;;896.78;;
27740;SDS011;15134;48.768;9.184;2023-07-31T05:49:21;995.47;;;896.00;;
27740;SDS011;15134;48.768;9.184;2023-07-31T05:51:47;994.28;;;894.78;;
27740;SDS011;15134;48.768;9.184;2023-07-31T05:54:14;1000.88;;;901.05;;
27740;SDS011;15134;48.768;9.184;2023-07-31T05:56:39;1005.45;;;905.67;;
27740;SDS011;15134;48.768;9.184;2023-07-31T05:59:12;1019.00;;;918.33;;
27740;SDS011;15134;48.768;9.184;2023-07-31T06:01:44;1012.72;;;912.63;;
27740;SDS011;15134;48.768;9.184;2023-07-31T06:04:10;1012.90;;;912.80;;
27740;SDS011;15134;48.768;9.184;2023-07-31T06:06:36;1022.20;;;921.63;;
27740;SDS011;15134;48.768;9.184;2023-07-31T06:09:02;1028.20;;;927.17;;
27740;SDS011;15134;48.768;9.184;2023-07-31T06:11:28;1032.18;;;931.00;;
27740;SDS011;15134;48.768;9.184;2023-07-31T06:13:54;1056.10;;;953.85;;
27740;SDS011;15134;48.768;9.184;2023-07-31T06:16:22;1065.53;;;963.15;;
27740;SDS011;15134;48.768;9.184;2023-07-31T06:18:48;1084.80;;;981.47;;
27740;SDS011;15134;48.768;9.184;2023-07-31T06:21:14;1097.53;;;993.72;;
27740;SDS011;15134;48.768;9.184;2023-07-31T06:23:43;1110.87;;;999.90;;
27740;SDS011;15134;48.768;9.184;2023-07-31T06:26:09;1104.97;;;999.90;;
27740;SDS011;15134;48.768;9.184;2023-07-31T06:28:34;1108.20;;;999.90;;
27740;SDS011;15134;48.768;9.184;2023-07-31T06:31:00;1124.80;;;999.90;;
27740;SDS011;15134;48.768;9.184;2023-07-31T06:33:32;1135.38;;;999.90;;
27740;SDS011;15134;48.768;9.184;2023-07-31T06:35:58;1159.53;;;999.90;;
27740;SDS011;15134;48.768;9.184;2023-07-31T06:38:26;1178.75;;;999.90;;
27740;SDS011;15134;48.768;9.184;2023-07-31T06:40:55;1186.50;;;999.90;;
27740;SDS011;15134;48.768;9.184;2023-07-31T06:43:21;1176.97;;;999.90;;
27740;SDS011;15134;48.768;9.184;2023-07-31T06:45:50;1165.43;;;999.90;;
27740;SDS011;15134;48.768;9.184;2023-07-31T06:48:16;1159.77;;;999.90;;
27740;SDS011;15134;48.768;9.184;2023-07-31T06:50:42;1159.85;;;999.90;;
27740;SDS011;15134;48.768;9.184;2023-07-31T06:53:08;1180.00;;;999.90;;
27740;SDS011;15134;48.768;9.184;2023-07-31T06:55:34;1185.90;;;999.90;;
27740;SDS011;15134;48.768;9.184;2023-07-31T06:57:59;1189.10;;;999.90;;
27740;SDS011;15134;48.768;9.184;2023-07-31T07:00:25;1203.00;;;999.90;;
27740;SDS011;15134;48.768;9.184;2023-07-31T07:02:51;1214.65;;;999.90;;
27740;SDS011;15134;48.768;9.184;2023-07-31T07:05:18;1222.27;;;999.90;;
27740;SDS011;15134;48.768;9.184;2023-07-31T07:07:44;1217.47;;;999.90;;
27740;SDS011;15134;48.768;9.184;2023-07-31T07:10:11;1213.57;;;999.90;;
27740;SDS011;15134;48.768;9.184;2023-07-31T07:12:38;1208.95;;;999.90;;
27740;SDS011;15134;48.768;9.184;2023-07-31T07:15:07;1206.68;;;999.90;;
27740;SDS011;15134;48.768;9.184;2023-07-31T07:17:33;1204.47;;;999.90;;
27740;SDS011;15134;48.768;9.184;2023-07-31T07:20:00;1205.70;;;999.90;;
27740;SDS011;15134;48.768;9.184;2023-07-31T07:22:26;1205.95;;;999.90;;
27740;SDS011;15134;48.768;9.184;2023-07-31T07:24:52;1211.63;;;999.90;;
27740;SDS011;15134;48.768;9.184;2023-07-31T07:27:20;1218.90;;;999.90;;
27740;SDS011;15134;48.768;9.184;2023-07-31T07:29:46;1242.80;;;999.90;;
27740;SDS011;15134;48.768;9.184;2023-07-31T07:32:12;1255.03;;;999.90;;
27740;SDS011;15134;48.768;9.184;2023-07-31T07:34:38;1248.03;;;999.90;;
27740;SDS011;15134;48.768;9.184;2023-07-31T07:37:03;1239.95;;;999.90;;
27740;SDS011;15134;48.768;9.184;2023-07-31T07:39:29;1236.27;;;999.90;;
27740;SDS011;15134;48.768;9.184;2023-07-31T07:41:55;1229.97;;;999.90;;
27740;SDS011;15134;48.768;9.184;2023-07-31T07:44:21;1222.95;;;999.90;;
27740;SDS011;15134;48.768;9.184;2023-07-31T07:46:46;1223.03;;;999.90;;
27740;SDS011;15134;48.768;9.184;2023-07-31T07:49:12;1228.53;;;999.90;;
27740;SDS011;15134;48.768;9.184;2023-07-31T07:51:39;1233.47;;;999.90;;
27740;SDS011;15134;48.768;9.184;2023-07-31T07:54:05;1239.43;;;999.90;;
27740;SDS011;15134;48.768;9.184;2023-07-31T07:56:32;1256.13;;;999.90;;
27740;SDS011;15134;48.768;9.184;2023-07-31T07:58:58;1266.80;;;999.90;;
27740;SDS011;15134;48.768;9.184;2023-07-31T08:01:24;1288.63;;;999.90;;
27740;SDS011;15134;48.768;9.184;2023-07-31T08:03:50;1295.13;;;999.90;;
27740;SDS011;15134;48.768;9.184;2023-07-31T08:06:15;1306.77;;;999.90;;
27740;SDS011;15134;48.768;9.184;2023-07-31T08:08:42;1322.85;;;999.90;;
27740;SDS011;15134;48.768;9.184;2023-07-31T08:11:07;1327.37;;;999.90;;
27740;SDS011;15134;48.768;9.184;2023-07-31T08:13:33;1331.43;;;999.90;;
27740;SDS011;15134;48.768;9.184;2023-07-31T08:16:01;1332.50;;;999.90;;
27740;SDS011;15134;48.768;9.184;2023-07-31T08:18:27;1344.97;;;999.90;;
27740;SDS011;15134;48.768;9.184;2023-07-31T08:20:57;1340.15;;;999.90;;
27740;SDS011;15134;48.768;9.184;2023-07-31T08:23:24;1341.40;;;999.90;;
27740;SDS011;15134;48.768;9.184;2023-07-31T08:25:49;1348.90;;;999.90;;
27740;SDS011;15134;48.768;9.184;2023-07-31T08:28:15;1352.88;;;999.90;;
27740;SDS011;15134;48.768;9.184;2023-07-31T08:30:44;1354.22;;;999.90;;
27740;SDS011;15134;48.768;9.184;2023-07-31T08:33:10;1352.07;;;999.90;;
27740;SDS011;15134;48.768;9.184;2023-07-31T08:35:36;1354.55;;;999.90;;
27740;SDS011;15134;48.768;9.184;2023-07-31T08:38:01;1353.80;;;999.90;;
27740;SDS011;15134;48.768;9.184;2023-07-31T08:40:28;1350.93;;;999.90;;
27740;SDS011;15134;48.768;9.184;2023-07-31T08:42:54;1347.13;;;999.90;;
27740;SDS011;15134;48.768;9.184;2023-07-31T08:45:30;1339.23;;;999.90;;
27740;SDS011;15134;48.768;9.184;2023-07-31T08:47:57;1339.13;;;999.90;;
27740;SDS011;15134;48.768;9.184;2023-07-31T08:50:24;1338.03;;;999.90;;
27740;SDS011;15134;48.768;9.184;2023-07-31T08:52:56;1333.60;;;999.90;;
27740;SDS011;15134;48.768;9.184;2023-07-31T08:55:24;1321.35;;;999.90;;
27740;SDS011;15134;48.768;9.184;2023-07-31T08:57:51;1309.50;;;999.90;;
27740;SDS011;15134;48.768;9.184;2023-07-31T09:00:18;1304.33;;;999.90;;
27740;SDS011;15134;48.768;9.184;2023-07-31T09:02:48;1303.20;;;999.90;;
27740;SDS011;15134;48.768;9.184;2023-07-31T09:05:17;1294.85;;;999.90;;
27740;SDS011;15134;48.768;9.184;2023-07-31T09:07:49;1288.28;;;999.90;;
27740;SDS011;15134;48.768;9.184;2023-07-31T09:10:16;1286.72;;;999.90;;
27740;SDS011;15134;48.768;9.184;2023-07-31T09:12:42;1297.83;;;999.90;;
27740;SDS011;15134;48.768;9.184;2023-07-31T09:15:08;1305.60;;;999.90;;
27740;SDS011;15134;48.768;9.184;2023-07-31T09:17:37;1310.05;;;999.90;;
27740;SDS011;15134;48.768;9.184;2023-07-31T09:20:15;1303.32;;;999.90;;
27740;SDS011;15134;48.768;9.184;2023-07-31T09:22:43;1297.15;;;999.90;;
27740;SDS011;15134;48.768;9.184;2023-07-31T09:25:19;1292.50;;;999.90;;
27740;SDS011;15134;48.768;9.184;2023-07-31T09:30:17;1281.07;;;999.90;;
27740;SDS011;15134;48.768;9.184;2023-07-31T09:32:50;1274.90;;;999.90;;
27740;SDS011;15134;48.768;9.184;2023-07-31T09:35:20;1267.20;;;999.90;;
27740;SDS011;15134;48.768;9.184;2023-07-31T09:37:53;1264.95;;;999.90;;
27740;SDS011;15134;48.768;9.184;2023-07-31T09:40:26;1253.22;;;999.90;;
27740;SDS011;15134;48.768;9.184;2023-07-31T09:42:57;1240.93;;;999.90;;
27740;SDS011;15134;48.768;9.184;2023-07-31T09:45:24;1222.05;;;999.90;;
27740;SDS011;15134;48.768;9.184;2023-07-31T09:47:51;1207.80;;;999.90;;
27740;SDS011;15134;48.768;9.184;2023-07-31T09:50:17;1195.47;;;999.90;;
27740;SDS011;15134;48.768;9.184;2023-07-31T09:52:43;1201.78;;;999.90;;
27740;SDS011;15134;48.768;9.184;2023-07-31T09:55:09;1229.57;;;999.90;;
27740;SDS011;15134;48.768;9.184;2023-07-31T09:57:56;1248.85;;;999.90;;
27740;SDS011;15134;48.768;9.184;2023-07-31T10:00:21;1257.68;;;999.90;;
27740;SDS011;15134;48.768;9.184;2023-07-31T10:02:50;1260.50;;;999.90;;
27740;SDS011;15134;48.768;9.184;2023-07-31T10:05:17;1252.03;;;999.90;;
27740;SDS011;15134;48.768;9.184;2023-07-31T10:07:53;1240.90;;;999.90;;
27740;SDS011;15134;48.768;9.184;2023-07-31T10:10:21;1230.77;;;999.90;;
27740;SDS011;15134;48.768;9.184;2023-07-31T10:12:48;1218.95;;;999.90;;
27740;SDS011;15134;48.768;9.184;2023-07-31T10:15:15;1203.15;;;999.90;;
27740;SDS011;15134;48.768;9.184;2023-07-31T10:17:41;1187.82;;;999.90;;
27740;SDS011;15134;48.768;9.184;2023-07-31T10:20:07;1189.85;;;999.90;;
27740;SDS011;15134;48.768;9.184;2023-07-31T10:22:34;1190.35;;;999.90;;
27740;SDS011;15134;48.768;9.184;2023-07-31T10:25:00;1181.10;;;999.90;;
27740;SDS011;15134;48.768;9.184;2023-07-31T10:27:28;1189.05;;;999.90;;
27740;SDS011;15134;48.768;9.184;2023-07-31T10:29:55;1191.70;;;999.90;;
27740;SDS011;15134;48.768;9.184;2023-07-31T10:32:22;1181.63;;;999.90;;
27740;SDS011;15134;48.768;9.184;2023-07-31T10:34:49;1179.82;;;999.90;;
27740;SDS011;15134;48.768;9.184;2023-07-31T10:37:29;1171.83;;;999.90;;
27740;SDS011;15134;48.768;9.184;2023-07-31T10:40:03;1168.47;;;999.90;;
27740;SDS011;15134;48.768;9.184;2023-07-31T10:42:34;1169.72;;;999.90;;
27740;SDS011;15134;48.768;9.184;2023-07-31T10:45:09;1163.25;;;999.90;;
27740;SDS011;15134;48.768;9.184;2023-07-31T10:47:36;1163.47;;;999.90;;
27740;SDS011;15134;48.768;9.184;2023-07-31T10:50:18;1155.10;;;999.90;;
27740;SDS011;15134;48.768;9.184;2023-07-31T10:52:50;1160.50;;;999.90;;
27740;SDS011;15134;48.768;9.184;2023-07-31T10:55:25;1158.88;;;999.90;;
27740;SDS011;15134;48.768;9.184;2023-07-31T10:57:52;1163.07;;;999.90;;
27740;SDS011;15134;48.768;9.184;2023-07-31T11:00:26;1159.90;;;999.90;;
27740;SDS011;15134;48.768;9.184;2023-07-31T11:03:04;1162.05;;;999.90;;
27740;SDS011;15134;48.768;9.184;2023-07-31T11:08:19;1151.07;;;999.90;;
27740;SDS011;15134;48.768;9.184;2023-07-31T11:13:28;1154.90;;;999.90;;
27740;SDS011;15134;48.768;9.184;2023-07-31T11:16:14;1148.85;;;999.90;;
27740;SDS011;15134;48.768;9.184;2023-07-31T11:18:44;1152.30;;;999.90;;
27740;SDS011;15134;48.768;9.184;2023-07-31T11:21:16;1145.60;;;999.90;;
27740;SDS011;15134;48.768;9.184;2023-07-31T11:23:57;1141.18;;;999.90;;
27740;SDS011;15134;48.768;9.184;2023-07-31T11:26:26;1138.32;;;999.90;;
27740;SDS011;15134;48.768;9.184;2023-07-31T11:28:52;1141.72;;;999.90;;
27740;SDS011;15134;48.768;9.184;2023-07-31T11:31:18;1139.73;;;999.90;;
27740;SDS011;15134;48.768;9.184;2023-07-31T11:33:44;1133.68;;;999.90;;
27740;SDS011;15134;48.768;9.184;2023-07-31T11:36:14;1131.75;;;999.90;;
27740;SDS011;15134;48.768;9.184;2023-07-31T11:38:41;1131.50;;;999.90;;
27740;SDS011;15134;48.768;9.184;2023-07-31T11:41:07;1127.10;;;999.90;;
27740;SDS011;15134;48.768;9.184;2023-07-31T11:43:33;1126.50;;;999.90;;
27740;SDS011;15134;48.768;9.184;2023-07-31T11:46:01;1120.40;;;999.90;;
27740;SDS011;15134;48.768;9.184;2023-07-31T11:48:33;1119.78;;;999.90;;
27740;SDS011;15134;48.768;9.184;2023-07-31T11:51:04;1123.05;;;999.90;;
27740;SDS011;15134;48.768;9.184;2023-07-31T11:56:10;1128.72;;;999.90;;
27740;SDS011;15134;48.768;9.184;2023-07-31T11:58:38;1124.63;;;999.90;;
27740;SDS011;15134;48.768;9.184;2023-07-31T12:01:05;1133.47;;;999.90;;
27740;SDS011;15134;48.768;9.184;2023-07-31T12:03:32;1131.38;;;999.90;;
27740;SDS011;15134;48.768;9.184;2023-07-31T12:05:59;1130.72;;;999.90;;
27740;SDS011;15134;48.768;9.184;2023-07-31T12:08:25;1136.57;;;999.90;;
27740;SDS011;15134;48.768;9.184;2023-07-31T12:10:51;1135.60;;;999.90;;
27740;SDS011;15134;48.768;9.184;2023-07-31T12:13:22;1135.45;;;999.90;;
27740;SDS011;15134;48.768;9.184;2023-07-31T12:15:53;1134.70;;;999.90;;
27740;SDS011;15134;48.768;9.184;2023-07-31T12:18:21;1133.22;;;999.90;;
27740;SDS011;15134;48.768;9.184;2023-07-31T12:20:49;1139.67;;;999.90;;
27740;SDS011;15134;48.768;9.184;2023-07-31T12:23:23;1127.60;;;999.90;;
27740;SDS011;15134;48.768;9.184;2023-07-31T12:26:33;1129.57;;;999.90;;
27740;SDS011;15134;48.768;9.184;2023-07-31T12:28:49;1125.03;;;999.90;;
27740;SDS011;15134;48.768;9.184;2023-07-31T12:31:20;1122.15;;;999.90;;
27740;SDS011;15134;48.768;9.184;2023-07-31T12:33:47;1129.25;;;999.90;;
27740;SDS011;15134;48.768;9.184;2023-07-31T12:36:16;1123.72;;;999.90;;
27740;SDS011;15134;48.768;9.184;2023-07-31T12:38:43;1125.95;;;999.90;;
27740;SDS011;15134;48.768;9.184;2023-07-31T12:41:09;1125.25;;;999.90;;
27740;SDS011;15134;48.768;9.184;2023-07-31T12:43:36;1127.05;;;999.90;;
27740;SDS011;15134;48.768;9.184;2023-07-31T12:46:03;1122.18;;;999.90;;
27740;SDS011;15134;48.768;9.184;2023-07-31T12:48:29;1123.97;;;999.90;;
27740;SDS011;15134;48.768;9.184;2023-07-31T12:50:55;1123.30;;;999.90;;
27740;SDS011;15134;48.768;9.184;2023-07-31T12:53:21;1115.13;;;999.90;;
27740;SDS011;15134;48.768;9.184;2023-07-31T12:55:46;1120.20;;;999.90;;
27740;SDS011;15134;48.768;9.184;2023-07-31T12:58:15;1116.72;;;999.90;;
27740;SDS011;15134;48.768;9.184;2023-07-31T13:00:41;1121.88;;;999.90;;
27740;SDS011;15134;48.768;9.184;2023-07-31T13:03:07;1116.32;;;999.90;;
27740;SDS011;15134;48.768;9.184;2023-07-31T13:05:33;1123.00;;;999.90;;
27740;SDS011;15134;48.768;9.184;2023-07-31T13:08:00;1113.30;;;999.90;;
27740;SDS011;15134;48.768;9.184;2023-07-31T13:10:26;1117.35;;;999.90;;
27740;SDS011;15134;48.768;9.184;2023-07-31T13:12:53;1115.90;;;999.90;;
27740;SDS011;15134;48.768;9.184;2023-07-31T13:15:21;1117.40;;;999.90;;
27740;SDS011;15134;48.768;9.184;2023-07-31T13:17:46;1114.38;;;999.90;;
27740;SDS011;15134;48.768;9.184;2023-07-31T13:20:12;1126.20;;;999.90;;
27740;SDS011;15134;48.768;9.184;2023-07-31T13:22:38;1123.93;;;999.90;;
27740;SDS011;15134;48.768;9.184;2023-07-31T13:25:07;1125.40;;;999.90;;
27740;SDS011;15134;48.768;9.184;2023-07-31T13:27:33;1130.93;;;999.90;;
27740;SDS011;15134;48.768;9.184;2023-07-31T13:30:02;1126.43;;;999.90;;
27740;SDS011;15134;48.768;9.184;2023-07-31T13:32:29;1126.30;;;999.90;;
27740;SDS011;15134;48.768;9.184;2023-07-31T13:34:55;1129.55;;;999.90;;
27740;SDS011;15134;48.768;9.184;2023-07-31T13:37:21;1131.63;;;999.90;;
27740;SDS011;15134;48.768;9.184;2023-07-31T13:39:46;1122.55;;;999.90;;
27740;SDS011;15134;48.768;9.184;2023-07-31T13:42:12;1128.53;;;999.90;;
27740;SDS011;15134;48.768;9.184;2023-07-31T13:44:38;1128.72;;;999.90;;
27740;SDS011;15134;48.768;9.184;2023-07-31T13:47:04;1141.13;;;999.90;;
27740;SDS011;15134;48.768;9.184;2023-07-31T13:49:33;1133.35;;;999.90;;
27740;SDS011;15134;48.768;9.184;2023-07-31T13:51:59;1134.78;;;999.90;;
27740;SDS011;15134;48.768;9.184;2023-07-31T13:54:25;1138.57;;;999.90;;
27740;SDS011;15134;48.768;9.184;2023-07-31T13:56:51;1126.13;;;999.90;;
27740;SDS011;15134;48.768;9.184;2023-07-31T13:59:17;1131.72;;;999.90;;
27740;SDS011;15134;48.768;9.184;2023-07-31T14:01:43;1129.88;;;999.90;;
27740;SDS011;15134;48.768;9.184;2023-07-31T14:04:10;1133.00;;;999.90;;
27740;SDS011;15134;48.768;9.184;2023-07-31T14:06:37;1128.50;;;999.90;;
27740;SDS011;15134;48.768;9.184;2023-07-31T14:09:04;1134.40;;;999.90;;
27740;SDS011;15134;48.768;9.184;2023-07-31T14:11:30;1121.70;;;999.90;;